Murrurundi, Australia
Current Conditions -  °F | °C
As of 10:30 PM on Saturday 25 Oct 2014 (Local Time) from YSTW Reporting Station
Clear Clear  
Wind Chill: 79°   Ceiling: Unl
Heat Index: 79°   Visibility: 6mi
Dew Point: 43°   Wind: 15mph
Humidity: 28%   Direction: 100°E
Pressure: 30.03"   Gusts: NA
Location:  31.76°S, 150.83°E
Report Text: YSTW 251130Z AUTO 10013KT 9999 // NCD 26/06 Q1017
Loading
Personal Weather Stations






























Interactive Weather Map
Tropical Storm Tracking
New forecast layout! Learn more

10-Day Weather Forecast

Advertisements
Track Severe Weather on mobile